sensor_id;sensor_type;location;lat;lon;timestamp;temperature;humidity
15834;DHT22;8017;50.812;4.934;2023-04-02T00:02:25;8.60;99.90
15834;DHT22;8017;50.812;4.934;2023-04-02T00:05:40;8.60;99.90
15834;DHT22;8017;50.812;4.934;2023-04-02T00:08:51;8.50;99.90
15834;DHT22;8017;50.812;4.934;2023-04-02T00:11:56;8.50;99.90
15834;DHT22;8017;50.812;4.934;2023-04-02T00:15:01;8.40;99.90
15834;DHT22;8017;50.812;4.934;2023-04-02T00:18:03;8.40;99.90
15834;DHT22;8017;50.812;4.934;2023-04-02T00:21:10;8.40;99.90
15834;DHT22;8017;50.812;4.934;2023-04-02T00:24:15;8.50;99.90
15834;DHT22;8017;50.812;4.934;2023-04-02T00:27:18;8.50;99.90
15834;DHT22;8017;50.812;4.934;2023-04-02T00:30:22;8.40;99.90
15834;DHT22;8017;50.812;4.934;2023-04-02T00:33:26;8.50;99.90
15834;DHT22;8017;50.812;4.934;2023-04-02T00:36:30;8.40;99.90
15834;DHT22;8017;50.812;4.934;2023-04-02T00:39:37;8.30;99.90
15834;DHT22;8017;50.812;4.934;2023-04-02T00:42:41;8.20;99.90
15834;DHT22;8017;50.812;4.934;2023-04-02T00:45:46;8.20;99.90
15834;DHT22;8017;50.812;4.934;2023-04-02T00:48:55;8.10;99.90
15834;DHT22;8017;50.812;4.934;2023-04-02T00:52:02;7.90;99.90
15834;DHT22;8017;50.812;4.934;2023-04-02T00:55:07;7.90;99.90
15834;DHT22;8017;50.812;4.934;2023-04-02T00:58:18;7.90;99.90
15834;DHT22;8017;50.812;4.934;2023-04-02T01:01:25;7.90;99.90
15834;DHT22;8017;50.812;4.934;2023-04-02T01:04:31;7.90;99.90
15834;DHT22;8017;50.812;4.934;2023-04-02T01:07:50;7.80;99.90
15834;DHT22;8017;50.812;4.934;2023-04-02T01:11:01;7.80;99.90
15834;DHT22;8017;50.812;4.934;2023-04-02T01:14:12;7.80;99.90
15834;DHT22;8017;50.812;4.934;2023-04-02T01:17:31;7.90;99.90
15834;DHT22;8017;50.812;4.934;2023-04-02T01:24:12;7.80;99.90
15834;DHT22;8017;50.812;4.934;2023-04-02T01:27:17;7.80;99.90
15834;DHT22;8017;50.812;4.934;2023-04-02T01:30:23;7.80;99.90
15834;DHT22;8017;50.812;4.934;2023-04-02T01:33:28;7.80;99.90
15834;DHT22;8017;50.812;4.934;2023-04-02T01:36:38;7.70;99.90
15834;DHT22;8017;50.812;4.934;2023-04-02T01:39:55;7.60;99.90
15834;DHT22;8017;50.812;4.934;2023-04-02T01:43:05;7.50;99.90
15834;DHT22;8017;50.812;4.934;2023-04-02T01:46:25;7.50;99.90
15834;DHT22;8017;50.812;4.934;2023-04-02T01:49:27;7.30;99.90
15834;DHT22;8017;50.812;4.934;2023-04-02T01:52:35;7.30;99.90
15834;DHT22;8017;50.812;4.934;2023-04-02T01:55:42;7.30;99.90
15834;DHT22;8017;50.812;4.934;2023-04-02T01:58:45;7.20;99.90
15834;DHT22;8017;50.812;4.934;2023-04-02T02:01:55;7.20;99.90
15834;DHT22;8017;50.812;4.934;2023-04-02T02:04:58;7.20;99.90
15834;DHT22;8017;50.812;4.934;2023-04-02T02:08:01;7.20;99.90
15834;DHT22;8017;50.812;4.934;2023-04-02T02:11:04;7.20;99.90
15834;DHT22;8017;50.812;4.934;2023-04-02T02:14:11;7.10;99.90
15834;DHT22;8017;50.812;4.934;2023-04-02T02:17:24;7.10;99.90
15834;DHT22;8017;50.812;4.934;2023-04-02T02:20:28;7.10;99.90
15834;DHT22;8017;50.812;4.934;2023-04-02T02:23:30;7.10;99.90
15834;DHT22;8017;50.812;4.934;2023-04-02T02:26:33;7.10;99.90
15834;DHT22;8017;50.812;4.934;2023-04-02T02:29:37;7.10;99.90
15834;DHT22;8017;50.812;4.934;2023-04-02T02:32:51;7.10;99.90
15834;DHT22;8017;50.812;4.934;2023-04-02T02:35:58;7.10;99.90
15834;DHT22;8017;50.812;4.934;2023-04-02T02:39:03;7.10;99.90
15834;DHT22;8017;50.812;4.934;2023-04-02T02:42:12;7.10;99.90
15834;DHT22;8017;50.812;4.934;2023-04-02T02:45:17;7.10;99.90
15834;DHT22;8017;50.812;4.934;2023-04-02T02:48:29;7.20;99.90
15834;DHT22;8017;50.812;4.934;2023-04-02T02:51:39;7.20;99.90
15834;DHT22;8017;50.812;4.934;2023-04-02T02:54:44;7.20;99.90
15834;DHT22;8017;50.812;4.934;2023-04-02T02:57:49;7.30;99.90
15834;DHT22;8017;50.812;4.934;2023-04-02T03:00:52;7.30;99.90
15834;DHT22;8017;50.812;4.934;2023-04-02T03:03:56;7.30;99.90
15834;DHT22;8017;50.812;4.934;2023-04-02T03:06:58;7.30;99.90
15834;DHT22;8017;50.812;4.934;2023-04-02T03:10:04;7.30;99.90
15834;DHT22;8017;50.812;4.934;2023-04-02T03:13:19;7.30;99.90
15834;DHT22;8017;50.812;4.934;2023-04-02T03:16:26;7.30;99.90
15834;DHT22;8017;50.812;4.934;2023-04-02T03:19:34;7.40;99.90
15834;DHT22;8017;50.812;4.934;2023-04-02T03:22:43;7.20;99.90
15834;DHT22;8017;50.812;4.934;2023-04-02T03:25:51;7.00;99.90
15834;DHT22;8017;50.812;4.934;2023-04-02T03:29:00;7.00;99.90
15834;DHT22;8017;50.812;4.934;2023-04-02T03:32:05;6.90;99.90
15834;DHT22;8017;50.812;4.934;2023-04-02T03:35:17;6.90;99.90
15834;DHT22;8017;50.812;4.934;2023-04-02T03:38:24;6.80;99.90
15834;DHT22;8017;50.812;4.934;2023-04-02T03:41:32;6.80;99.90
15834;DHT22;8017;50.812;4.934;2023-04-02T03:44:44;6.80;99.90
15834;DHT22;8017;50.812;4.934;2023-04-02T03:47:50;6.70;99.90
15834;DHT22;8017;50.812;4.934;2023-04-02T03:50:58;6.80;99.90
15834;DHT22;8017;50.812;4.934;2023-04-02T03:54:01;6.80;99.90
15834;DHT22;8017;50.812;4.934;2023-04-02T03:57:03;6.80;99.90
15834;DHT22;8017;50.812;4.934;2023-04-02T04:00:14;6.90;99.90
15834;DHT22;8017;50.812;4.934;2023-04-02T04:03:21;6.90;99.90
15834;DHT22;8017;50.812;4.934;2023-04-02T04:06:28;6.90;99.90
15834;DHT22;8017;50.812;4.934;2023-04-02T04:09:34;6.80;99.90
15834;DHT22;8017;50.812;4.934;2023-04-02T04:12:40;6.80;99.90
15834;DHT22;8017;50.812;4.934;2023-04-02T04:15:49;6.70;99.90
15834;DHT22;8017;50.812;4.934;2023-04-02T04:18:54;6.80;99.90
15834;DHT22;8017;50.812;4.934;2023-04-02T04:22:14;6.80;99.90
15834;DHT22;8017;50.812;4.934;2023-04-02T04:25:22;6.80;99.90
15834;DHT22;8017;50.812;4.934;2023-04-02T04:28:33;6.90;99.90
15834;DHT22;8017;50.812;4.934;2023-04-02T04:31:42;6.90;99.90
15834;DHT22;8017;50.812;4.934;2023-04-02T04:34:47;6.80;99.90
15834;DHT22;8017;50.812;4.934;2023-04-02T04:37:58;6.80;99.90
15834;DHT22;8017;50.812;4.934;2023-04-02T04:41:05;6.90;99.90
15834;DHT22;8017;50.812;4.934;2023-04-02T04:44:15;6.80;99.90
15834;DHT22;8017;50.812;4.934;2023-04-02T04:47:23;6.70;99.90
15834;DHT22;8017;50.812;4.934;2023-04-02T04:50:30;6.50;99.90
15834;DHT22;8017;50.812;4.934;2023-04-02T04:53:43;6.50;99.90
15834;DHT22;8017;50.812;4.934;2023-04-02T04:56:48;6.60;99.90
15834;DHT22;8017;50.812;4.934;2023-04-02T04:59:56;6.50;99.90
15834;DHT22;8017;50.812;4.934;2023-04-02T05:03:04;6.50;99.90
15834;DHT22;8017;50.812;4.934;2023-04-02T05:06:11;6.50;99.90
15834;DHT22;8017;50.812;4.934;2023-04-02T05:09:20;6.50;99.90
15834;DHT22;8017;50.812;4.934;2023-04-02T05:12:31;6.50;99.90
15834;DHT22;8017;50.812;4.934;2023-04-02T05:15:39;6.50;99.90
15834;DHT22;8017;50.812;4.934;2023-04-02T05:18:46;6.50;99.90
15834;DHT22;8017;50.812;4.934;2023-04-02T05:21:54;6.50;99.90
15834;DHT22;8017;50.812;4.934;2023-04-02T05:25:12;6.40;99.90
15834;DHT22;8017;50.812;4.934;2023-04-02T05:28:18;6.40;99.90
15834;DHT22;8017;50.812;4.934;2023-04-02T05:31:24;6.40;99.90
15834;DHT22;8017;50.812;4.934;2023-04-02T05:34:30;6.30;99.90
15834;DHT22;8017;50.812;4.934;2023-04-02T05:37:33;6.30;99.90
15834;DHT22;8017;50.812;4.934;2023-04-02T05:40:39;6.20;99.90
15834;DHT22;8017;50.812;4.934;2023-04-02T05:43:45;6.20;99.90
15834;DHT22;8017;50.812;4.934;2023-04-02T05:46:49;6.20;99.90
15834;DHT22;8017;50.812;4.934;2023-04-02T05:50:04;6.20;99.90
15834;DHT22;8017;50.812;4.934;2023-04-02T05:53:13;6.10;99.90
15834;DHT22;8017;50.812;4.934;2023-04-02T05:56:22;6.20;99.90
15834;DHT22;8017;50.812;4.934;2023-04-02T05:59:28;6.20;99.90
15834;DHT22;8017;50.812;4.934;2023-04-02T06:02:34;6.30;99.90
15834;DHT22;8017;50.812;4.934;2023-04-02T06:05:40;6.20;99.90
15834;DHT22;8017;50.812;4.934;2023-04-02T06:08:48;6.20;99.90
15834;DHT22;8017;50.812;4.934;2023-04-02T06:11:58;6.20;99.90
15834;DHT22;8017;50.812;4.934;2023-04-02T06:15:01;6.20;99.90
15834;DHT22;8017;50.812;4.934;2023-04-02T06:18:06;6.30;99.90
15834;DHT22;8017;50.812;4.934;2023-04-02T06:21:13;6.30;99.90
15834;DHT22;8017;50.812;4.934;2023-04-02T06:24:18;6.30;99.90
15834;DHT22;8017;50.812;4.934;2023-04-02T06:27:24;6.20;99.90
15834;DHT22;8017;50.812;4.934;2023-04-02T06:30:30;6.20;99.90
15834;DHT22;8017;50.812;4.934;2023-04-02T06:33:33;6.20;99.90
15834;DHT22;8017;50.812;4.934;2023-04-02T06:36:35;6.20;99.90
15834;DHT22;8017;50.812;4.934;2023-04-02T06:39:37;6.40;99.90
15834;DHT22;8017;50.812;4.934;2023-04-02T06:42:41;6.40;99.90
15834;DHT22;8017;50.812;4.934;2023-04-02T06:45:45;6.40;99.90
15834;DHT22;8017;50.812;4.934;2023-04-02T06:48:51;6.40;99.90
15834;DHT22;8017;50.812;4.934;2023-04-02T06:51:55;6.20;99.90
15834;DHT22;8017;50.812;4.934;2023-04-02T06:54:59;6.10;99.90
15834;DHT22;8017;50.812;4.934;2023-04-02T06:58:02;6.10;99.90
15834;DHT22;8017;50.812;4.934;2023-04-02T07:01:04;6.10;99.90
15834;DHT22;8017;50.812;4.934;2023-04-02T07:04:07;6.10;99.90
15834;DHT22;8017;50.812;4.934;2023-04-02T07:07:09;6.00;99.90
15834;DHT22;8017;50.812;4.934;2023-04-02T07:10:11;5.90;99.90
15834;DHT22;8017;50.812;4.934;2023-04-02T07:13:16;5.90;99.90
15834;DHT22;8017;50.812;4.934;2023-04-02T07:16:20;5.90;99.90
15834;DHT22;8017;50.812;4.934;2023-04-02T07:19:24;5.90;99.90
15834;DHT22;8017;50.812;4.934;2023-04-02T07:22:26;6.00;99.90
15834;DHT22;8017;50.812;4.934;2023-04-02T07:25:28;6.00;99.90
15834;DHT22;8017;50.812;4.934;2023-04-02T07:28:32;6.00;99.90
15834;DHT22;8017;50.812;4.934;2023-04-02T07:31:37;6.00;99.90
15834;DHT22;8017;50.812;4.934;2023-04-02T07:34:40;6.10;99.90
15834;DHT22;8017;50.812;4.934;2023-04-02T07:37:42;6.00;99.90
15834;DHT22;8017;50.812;4.934;2023-04-02T07:40:44;6.10;99.90
15834;DHT22;8017;50.812;4.934;2023-04-02T07:43:48;6.10;99.90
15834;DHT22;8017;50.812;4.934;2023-04-02T07:46:50;6.20;99.90
15834;DHT22;8017;50.812;4.934;2023-04-02T07:49:52;6.30;99.90
15834;DHT22;8017;50.812;4.934;2023-04-02T07:52:54;6.20;99.90
15834;DHT22;8017;50.812;4.934;2023-04-02T07:55:56;6.10;99.90
15834;DHT22;8017;50.812;4.934;2023-04-02T07:58:59;6.10;99.90
15834;DHT22;8017;50.812;4.934;2023-04-02T08:02:01;6.10;99.90
15834;DHT22;8017;50.812;4.934;2023-04-02T08:05:04;6.10;99.90
15834;DHT22;8017;50.812;4.934;2023-04-02T08:08:06;6.00;99.90
15834;DHT22;8017;50.812;4.934;2023-04-02T08:11:09;6.00;99.90
15834;DHT22;8017;50.812;4.934;2023-04-02T08:14:12;6.00;99.90
15834;DHT22;8017;50.812;4.934;2023-04-02T08:17:15;6.00;99.90
15834;DHT22;8017;50.812;4.934;2023-04-02T08:20:18;5.90;99.90
15834;DHT22;8017;50.812;4.934;2023-04-02T08:23:20;6.00;99.90
15834;DHT22;8017;50.812;4.934;2023-04-02T08:26:22;6.00;99.90
15834;DHT22;8017;50.812;4.934;2023-04-02T08:29:26;6.10;99.90
15834;DHT22;8017;50.812;4.934;2023-04-02T08:32:31;5.90;99.90
15834;DHT22;8017;50.812;4.934;2023-04-02T08:35:33;5.90;99.90
15834;DHT22;8017;50.812;4.934;2023-04-02T08:38:35;5.80;99.90
15834;DHT22;8017;50.812;4.934;2023-04-02T08:41:41;5.80;99.90
15834;DHT22;8017;50.812;4.934;2023-04-02T08:44:51;5.90;99.90
15834;DHT22;8017;50.812;4.934;2023-04-02T08:47:56;6.00;99.90
15834;DHT22;8017;50.812;4.934;2023-04-02T08:50:59;5.80;99.90
15834;DHT22;8017;50.812;4.934;2023-04-02T08:54:10;5.90;99.90
15834;DHT22;8017;50.812;4.934;2023-04-02T08:57:22;5.90;99.90
15834;DHT22;8017;50.812;4.934;2023-04-02T09:00:33;6.00;99.90
15834;DHT22;8017;50.812;4.934;2023-04-02T09:03:39;5.90;99.90
15834;DHT22;8017;50.812;4.934;2023-04-02T09:06:42;5.80;99.90
15834;DHT22;8017;50.812;4.934;2023-04-02T09:09:47;5.80;99.90
15834;DHT22;8017;50.812;4.934;2023-04-02T09:12:51;5.80;99.90
15834;DHT22;8017;50.812;4.934;2023-04-02T09:16:01;5.90;99.90
15834;DHT22;8017;50.812;4.934;2023-04-02T09:19:16;6.00;99.90
15834;DHT22;8017;50.812;4.934;2023-04-02T09:22:21;6.00;99.90
15834;DHT22;8017;50.812;4.934;2023-04-02T09:25:25;6.10;99.90
15834;DHT22;8017;50.812;4.934;2023-04-02T09:28:27;6.00;99.90
15834;DHT22;8017;50.812;4.934;2023-04-02T09:31:34;6.00;99.90
15834;DHT22;8017;50.812;4.934;2023-04-02T09:34:37;5.80;99.90
15834;DHT22;8017;50.812;4.934;2023-04-02T09:37:39;5.80;99.90
15834;DHT22;8017;50.812;4.934;2023-04-02T09:40:45;5.90;99.90
15834;DHT22;8017;50.812;4.934;2023-04-02T09:43:47;5.90;99.90
15834;DHT22;8017;50.812;4.934;2023-04-02T09:46:53;5.90;99.90
15834;DHT22;8017;50.812;4.934;2023-04-02T09:50:12;6.00;99.90
15834;DHT22;8017;50.812;4.934;2023-04-02T09:53:29;6.10;99.90
15834;DHT22;8017;50.812;4.934;2023-04-02T09:56:32;6.20;99.90
15834;DHT22;8017;50.812;4.934;2023-04-02T09:59:34;6.40;99.90
15834;DHT22;8017;50.812;4.934;2023-04-02T10:02:39;6.50;99.90
15834;DHT22;8017;50.812;4.934;2023-04-02T10:05:41;6.60;99.90
15834;DHT22;8017;50.812;4.934;2023-04-02T10:08:43;6.60;99.90
15834;DHT22;8017;50.812;4.934;2023-04-02T10:11:46;6.80;99.90
15834;DHT22;8017;50.812;4.934;2023-04-02T10:14:48;6.70;99.90
15834;DHT22;8017;50.812;4.934;2023-04-02T10:17:59;6.60;99.90
15834;DHT22;8017;50.812;4.934;2023-04-02T10:21:04;6.50;99.90
15834;DHT22;8017;50.812;4.934;2023-04-02T10:24:09;6.40;99.90
15834;DHT22;8017;50.812;4.934;2023-04-02T10:27:17;6.30;99.90
15834;DHT22;8017;50.812;4.934;2023-04-02T10:30:23;6.30;99.90
15834;DHT22;8017;50.812;4.934;2023-04-02T10:33:33;6.40;99.90
15834;DHT22;8017;50.812;4.934;2023-04-02T10:36:45;6.50;99.90
15834;DHT22;8017;50.812;4.934;2023-04-02T10:39:54;6.40;99.90
15834;DHT22;8017;50.812;4.934;2023-04-02T10:46:33;6.70;99.90
15834;DHT22;8017;50.812;4.934;2023-04-02T10:49:41;7.10;99.90
15834;DHT22;8017;50.812;4.934;2023-04-02T10:52:53;7.10;99.90
15834;DHT22;8017;50.812;4.934;2023-04-02T10:56:01;7.20;99.90
15834;DHT22;8017;50.812;4.934;2023-04-02T10:59:11;7.10;99.90
15834;DHT22;8017;50.812;4.934;2023-04-02T11:02:28;7.20;99.90
15834;DHT22;8017;50.812;4.934;2023-04-02T11:05:35;7.30;99.90
15834;DHT22;8017;50.812;4.934;2023-04-02T11:08:46;6.90;99.90
15834;DHT22;8017;50.812;4.934;2023-04-02T11:11:51;6.90;99.90
15834;DHT22;8017;50.812;4.934;2023-04-02T11:14:55;6.90;99.90
15834;DHT22;8017;50.812;4.934;2023-04-02T11:17:57;7.10;99.90
15834;DHT22;8017;50.812;4.934;2023-04-02T11:21:03;7.20;99.90
15834;DHT22;8017;50.812;4.934;2023-04-02T11:24:22;7.20;99.90
15834;DHT22;8017;50.812;4.934;2023-04-02T11:27:26;7.20;99.90
15834;DHT22;8017;50.812;4.934;2023-04-02T11:30:30;7.30;99.90
15834;DHT22;8017;50.812;4.934;2023-04-02T11:33:38;7.50;99.90
15834;DHT22;8017;50.812;4.934;2023-04-02T11:37:01;7.50;99.90
15834;DHT22;8017;50.812;4.934;2023-04-02T11:40:44;7.30;99.90
15834;DHT22;8017;50.812;4.934;2023-04-02T11:43:50;7.30;99.90
15834;DHT22;8017;50.812;4.934;2023-04-02T11:47:17;7.20;99.90
15834;DHT22;8017;50.812;4.934;2023-04-02T11:50:30;6.90;99.90
15834;DHT22;8017;50.812;4.934;2023-04-02T11:53:33;6.90;99.90
15834;DHT22;8017;50.812;4.934;2023-04-02T11:56:41;6.90;99.90
15834;DHT22;8017;50.812;4.934;2023-04-02T11:59:55;7.20;99.90
15834;DHT22;8017;50.812;4.934;2023-04-02T12:03:29;7.20;99.90
15834;DHT22;8017;50.812;4.934;2023-04-02T12:06:46;7.00;99.90
15834;DHT22;8017;50.812;4.934;2023-04-02T12:09:52;7.20;99.90
15834;DHT22;8017;50.812;4.934;2023-04-02T12:12:56;7.20;99.90
15834;DHT22;8017;50.812;4.934;2023-04-02T12:15:58;7.20;99.90
15834;DHT22;8017;50.812;4.934;2023-04-02T12:19:01;7.10;99.90
15834;DHT22;8017;50.812;4.934;2023-04-02T12:22:15;7.20;99.90
15834;DHT22;8017;50.812;4.934;2023-04-02T12:25:24;7.30;99.90
15834;DHT22;8017;50.812;4.934;2023-04-02T12:28:30;7.50;99.90
15834;DHT22;8017;50.812;4.934;2023-04-02T12:31:33;7.50;99.90
15834;DHT22;8017;50.812;4.934;2023-04-02T12:34:36;7.50;99.90
15834;DHT22;8017;50.812;4.934;2023-04-02T12:37:38;7.60;99.90
15834;DHT22;8017;50.812;4.934;2023-04-02T12:40:40;7.70;99.90
15834;DHT22;8017;50.812;4.934;2023-04-02T12:44:00;7.60;99.90
15834;DHT22;8017;50.812;4.934;2023-04-02T12:47:03;7.50;99.90
15834;DHT22;8017;50.812;4.934;2023-04-02T12:50:12;7.50;99.90
15834;DHT22;8017;50.812;4.934;2023-04-02T12:53:21;7.60;99.90
15834;DHT22;8017;50.812;4.934;2023-04-02T12:56:24;7.40;99.90
15834;DHT22;8017;50.812;4.934;2023-04-02T12:59:30;7.50;99.90
15834;DHT22;8017;50.812;4.934;2023-04-02T13:02:43;7.40;99.90
15834;DHT22;8017;50.812;4.934;2023-04-02T13:05:48;7.40;99.90
15834;DHT22;8017;50.812;4.934;2023-04-02T13:08:52;7.40;99.90
15834;DHT22;8017;50.812;4.934;2023-04-02T13:11:55;7.40;99.90
15834;DHT22;8017;50.812;4.934;2023-04-02T13:15:00;7.20;99.90
15834;DHT22;8017;50.812;4.934;2023-04-02T13:18:12;7.10;99.90
15834;DHT22;8017;50.812;4.934;2023-04-02T13:21:25;7.10;99.90
15834;DHT22;8017;50.812;4.934;2023-04-02T13:24:29;7.10;99.90
15834;DHT22;8017;50.812;4.934;2023-04-02T13:27:31;7.10;99.90
15834;DHT22;8017;50.812;4.934;2023-04-02T13:30:34;7.20;99.90
15834;DHT22;8017;50.812;4.934;2023-04-02T13:33:36;7.20;99.90
15834;DHT22;8017;50.812;4.934;2023-04-02T13:36:38;7.20;99.90
15834;DHT22;8017;50.812;4.934;2023-04-02T13:39:40;7.40;99.90
15834;DHT22;8017;50.812;4.934;2023-04-02T13:42:42;7.50;99.90
15834;DHT22;8017;50.812;4.934;2023-04-02T13:45:48;7.40;99.90
15834;DHT22;8017;50.812;4.934;2023-04-02T13:48:52;7.50;99.90
15834;DHT22;8017;50.812;4.934;2023-04-02T13:51:56;7.30;99.90
15834;DHT22;8017;50.812;4.934;2023-04-02T13:54:59;7.60;99.90
15834;DHT22;8017;50.812;4.934;2023-04-02T13:58:02;7.80;99.90
15834;DHT22;8017;50.812;4.934;2023-04-02T14:01:05;7.60;99.90
15834;DHT22;8017;50.812;4.934;2023-04-02T14:04:09;7.70;99.90
15834;DHT22;8017;50.812;4.934;2023-04-02T14:07:24;7.70;99.90
15834;DHT22;8017;50.812;4.934;2023-04-02T14:10:46;7.80;99.90
15834;DHT22;8017;50.812;4.934;2023-04-02T14:17:26;7.50;99.90
15834;DHT22;8017;50.812;4.934;2023-04-02T14:20:36;7.40;99.90
15834;DHT22;8017;50.812;4.934;2023-04-02T14:23:53;7.30;99.90
15834;DHT22;8017;50.812;4.934;2023-04-02T14:27:08;7.40;99.90
15834;DHT22;8017;50.812;4.934;2023-04-02T14:30:16;7.40;99.90
15834;DHT22;8017;50.812;4.934;2023-04-02T14:33:32;7.40;99.90
15834;DHT22;8017;50.812;4.934;2023-04-02T14:36:47;7.40;99.90
15834;DHT22;8017;50.812;4.934;2023-04-02T14:40:02;7.50;99.90
15834;DHT22;8017;50.812;4.934;2023-04-02T14:43:11;7.50;99.90
15834;DHT22;8017;50.812;4.934;2023-04-02T14:46:17;7.50;99.90
15834;DHT22;8017;50.812;4.934;2023-04-02T14:49:24;7.60;99.90
15834;DHT22;8017;50.812;4.934;2023-04-02T14:52:31;7.40;99.90
15834;DHT22;8017;50.812;4.934;2023-04-02T14:55:37;7.40;99.90
15834;DHT22;8017;50.812;4.934;2023-04-02T14:58:45;7.50;99.90
15834;DHT22;8017;50.812;4.934;2023-04-02T15:01:49;7.80;99.90
15834;DHT22;8017;50.812;4.934;2023-04-02T15:04:59;7.90;99.90
15834;DHT22;8017;50.812;4.934;2023-04-02T15:08:06;8.00;99.90
15834;DHT22;8017;50.812;4.934;2023-04-02T15:11:11;7.90;99.90
15834;DHT22;8017;50.812;4.934;2023-04-02T15:14:17;7.70;99.90
15834;DHT22;8017;50.812;4.934;2023-04-02T15:17:20;7.50;99.90
15834;DHT22;8017;50.812;4.934;2023-04-02T15:20:24;7.30;99.90
15834;DHT22;8017;50.812;4.934;2023-04-02T15:26:58;7.20;99.90
15834;DHT22;8017;50.812;4.934;2023-04-02T15:30:07;7.30;99.90
15834;DHT22;8017;50.812;4.934;2023-04-02T15:33:40;7.20;99.90
15834;DHT22;8017;50.812;4.934;2023-04-02T15:37:06;7.10;99.90
15834;DHT22;8017;50.812;4.934;2023-04-02T15:40:28;7.20;99.90
15834;DHT22;8017;50.812;4.934;2023-04-02T15:43:38;7.20;99.90
15834;DHT22;8017;50.812;4.934;2023-04-02T15:46:48;7.30;99.90
15834;DHT22;8017;50.812;4.934;2023-04-02T15:50:01;7.40;99.90
15834;DHT22;8017;50.812;4.934;2023-04-02T15:53:18;7.40;99.90
15834;DHT22;8017;50.812;4.934;2023-04-02T15:56:25;7.20;99.90
15834;DHT22;8017;50.812;4.934;2023-04-02T15:59:39;7.00;99.90
15834;DHT22;8017;50.812;4.934;2023-04-02T16:03:18;7.00;99.90
15834;DHT22;8017;50.812;4.934;2023-04-02T16:06:26;6.90;99.90
15834;DHT22;8017;50.812;4.934;2023-04-02T16:09:36;6.70;99.90
15834;DHT22;8017;50.812;4.934;2023-04-02T16:12:42;6.80;99.90
15834;DHT22;8017;50.812;4.934;2023-04-02T16:15:48;6.90;99.90
15834;DHT22;8017;50.812;4.934;2023-04-02T16:18:56;7.00;99.90
15834;DHT22;8017;50.812;4.934;2023-04-02T16:22:03;7.00;99.90
15834;DHT22;8017;50.812;4.934;2023-04-02T16:25:14;7.00;99.90
15834;DHT22;8017;50.812;4.934;2023-04-02T16:28:23;7.10;99.90
15834;DHT22;8017;50.812;4.934;2023-04-02T16:31:34;7.20;99.90
15834;DHT22;8017;50.812;4.934;2023-04-02T16:34:46;7.20;99.90
15834;DHT22;8017;50.812;4.934;2023-04-02T16:37:55;7.30;99.90
15834;DHT22;8017;50.812;4.934;2023-04-02T16:41:05;7.30;99.90
15834;DHT22;8017;50.812;4.934;2023-04-02T16:44:21;7.40;99.90
15834;DHT22;8017;50.812;4.934;2023-04-02T16:47:44;7.20;99.90
15834;DHT22;8017;50.812;4.934;2023-04-02T16:50:54;7.30;99.90
15834;DHT22;8017;50.812;4.934;2023-04-02T16:54:02;7.40;99.90
15834;DHT22;8017;50.812;4.934;2023-04-02T16:57:17;7.40;99.90
15834;DHT22;8017;50.812;4.934;2023-04-02T17:00:27;7.50;99.90
15834;DHT22;8017;50.812;4.934;2023-04-02T17:03:52;7.40;99.90
15834;DHT22;8017;50.812;4.934;2023-04-02T17:07:01;7.40;99.90
15834;DHT22;8017;50.812;4.934;2023-04-02T17:10:23;7.40;99.90
15834;DHT22;8017;50.812;4.934;2023-04-02T17:13:35;7.30;99.90
15834;DHT22;8017;50.812;4.934;2023-04-02T17:16:41;7.10;99.90
15834;DHT22;8017;50.812;4.934;2023-04-02T17:19:44;7.10;99.90
15834;DHT22;8017;50.812;4.934;2023-04-02T17:22:47;7.10;99.90
15834;DHT22;8017;50.812;4.934;2023-04-02T17:25:52;7.10;99.90
15834;DHT22;8017;50.812;4.934;2023-04-02T17:29:00;7.10;99.90
15834;DHT22;8017;50.812;4.934;2023-04-02T17:32:14;7.20;99.90
15834;DHT22;8017;50.812;4.934;2023-04-02T17:35:21;7.30;99.90
15834;DHT22;8017;50.812;4.934;2023-04-02T17:38:32;7.40;99.90
15834;DHT22;8017;50.812;4.934;2023-04-02T17:41:43;7.50;99.90
15834;DHT22;8017;50.812;4.934;2023-04-02T17:45:06;7.50;99.90
15834;DHT22;8017;50.812;4.934;2023-04-02T17:48:16;7.50;99.90
15834;DHT22;8017;50.812;4.934;2023-04-02T17:51:27;7.50;99.90
15834;DHT22;8017;50.812;4.934;2023-04-02T17:54:40;7.50;99.90
15834;DHT22;8017;50.812;4.934;2023-04-02T17:57:54;7.50;99.90
15834;DHT22;8017;50.812;4.934;2023-04-02T18:01:08;7.50;99.90
15834;DHT22;8017;50.812;4.934;2023-04-02T18:04:21;7.30;99.90
15834;DHT22;8017;50.812;4.934;2023-04-02T18:07:34;7.20;99.90
15834;DHT22;8017;50.812;4.934;2023-04-02T18:10:43;7.00;99.90
15834;DHT22;8017;50.812;4.934;2023-04-02T18:13:54;6.80;99.90
15834;DHT22;8017;50.812;4.934;2023-04-02T18:17:09;6.60;99.90
15834;DHT22;8017;50.812;4.934;2023-04-02T18:20:25;6.50;99.90
15834;DHT22;8017;50.812;4.934;2023-04-02T18:23:38;6.40;99.90
15834;DHT22;8017;50.812;4.934;2023-04-02T18:26:50;6.30;99.90
15834;DHT22;8017;50.812;4.934;2023-04-02T18:29:59;6.20;99.90
15834;DHT22;8017;50.812;4.934;2023-04-02T18:33:20;6.10;99.90
15834;DHT22;8017;50.812;4.934;2023-04-02T18:36:36;6.00;99.90
15834;DHT22;8017;50.812;4.934;2023-04-02T18:39:50;5.80;99.90
15834;DHT22;8017;50.812;4.934;2023-04-02T18:43:01;5.70;99.90
15834;DHT22;8017;50.812;4.934;2023-04-02T18:46:12;5.70;99.90
15834;DHT22;8017;50.812;4.934;2023-04-02T18:49:25;5.70;99.90
15834;DHT22;8017;50.812;4.934;2023-04-02T18:52:29;5.50;99.90
15834;DHT22;8017;50.812;4.934;2023-04-02T18:55:31;5.50;99.90
15834;DHT22;8017;50.812;4.934;2023-04-02T18:58:38;5.50;99.90
15834;DHT22;8017;50.812;4.934;2023-04-02T19:01:44;5.50;99.90
15834;DHT22;8017;50.812;4.934;2023-04-02T19:04:55;5.30;99.90
15834;DHT22;8017;50.812;4.934;2023-04-02T19:08:03;5.30;99.90
15834;DHT22;8017;50.812;4.934;2023-04-02T19:11:09;5.30;99.90
15834;DHT22;8017;50.812;4.934;2023-04-02T19:14:16;5.40;99.90
15834;DHT22;8017;50.812;4.934;2023-04-02T19:17:21;5.40;99.90
15834;DHT22;8017;50.812;4.934;2023-04-02T19:20:34;5.50;99.90
15834;DHT22;8017;50.812;4.934;2023-04-02T19:23:47;5.50;99.90
15834;DHT22;8017;50.812;4.934;2023-04-02T19:26:57;5.60;99.90
15834;DHT22;8017;50.812;4.934;2023-04-02T19:30:17;5.60;99.90
15834;DHT22;8017;50.812;4.934;2023-04-02T19:33:33;5.80;99.90
15834;DHT22;8017;50.812;4.934;2023-04-02T19:36:44;5.80;99.90
15834;DHT22;8017;50.812;4.934;2023-04-02T19:40:12;5.80;99.90
15834;DHT22;8017;50.812;4.934;2023-04-02T19:43:17;5.80;99.90
15834;DHT22;8017;50.812;4.934;2023-04-02T19:46:19;5.80;99.90
15834;DHT22;8017;50.812;4.934;2023-04-02T19:49:24;5.80;99.90
15834;DHT22;8017;50.812;4.934;2023-04-02T19:52:29;5.80;99.90
15834;DHT22;8017;50.812;4.934;2023-04-02T19:55:31;5.90;99.90
15834;DHT22;8017;50.812;4.934;2023-04-02T19:58:34;5.90;99.90
15834;DHT22;8017;50.812;4.934;2023-04-02T20:01:36;5.90;99.90
15834;DHT22;8017;50.812;4.934;2023-04-02T20:04:38;6.00;99.90
15834;DHT22;8017;50.812;4.934;2023-04-02T20:07:43;6.00;99.90
15834;DHT22;8017;50.812;4.934;2023-04-02T20:10:45;6.10;99.90
15834;DHT22;8017;50.812;4.934;2023-04-02T20:13:47;6.00;99.90
15834;DHT22;8017;50.812;4.934;2023-04-02T20:16:50;6.10;99.90
15834;DHT22;8017;50.812;4.934;2023-04-02T20:19:53;6.10;99.90
15834;DHT22;8017;50.812;4.934;2023-04-02T20:23:09;6.20;99.90
15834;DHT22;8017;50.812;4.934;2023-04-02T20:26:17;6.10;99.90
15834;DHT22;8017;50.812;4.934;2023-04-02T20:29:19;6.10;99.90
15834;DHT22;8017;50.812;4.934;2023-04-02T20:32:23;6.10;99.90
15834;DHT22;8017;50.812;4.934;2023-04-02T20:35:25;6.10;99.90
15834;DHT22;8017;50.812;4.934;2023-04-02T20:38:30;6.00;99.90
15834;DHT22;8017;50.812;4.934;2023-04-02T20:41:32;5.90;99.90